Scott Bar, California
Current Conditions -  °F | °C
As of 11:53 PM on Friday 19 Dec 2014 (Local Time) from KSIY Reporting Station
Overcast Overcast  
Wind Chill:   Ceiling: 7000
Heat Index:   Visibility: 10mi
Dew Point:   Wind: 5mph
Humidity: 86%   Direction: 200°SSW
Pressure: 30.01"   Gusts: NA
Location:  41.74°N, 123°W
Report Text: KSIY 200753Z AUTO 20004KT 10SM SCT050 OVC070 06/04 A3001 RMK AO2 RAB06E45 SLP173 P0000 T00610039 401060039
Loading
Personal Weather Stations






























Interactive Weather Map New forecast layout! Learn more

10-Day Weather Forecast

Advertisements
Track Severe Weather on mobile